• Join FlightAware (Why Join?)
  • Login
  • US Flag 
08:08PM EDT


 

Airport Tracker/Info


-or-


 

Live Flight TrackerFlight Track Log ✈ AVN11 ✈ 15-Oct-2013 ✈ YSSY / SYD - NVVV / VLI

Flight Track Log - Related Links

Times and Time Zones

All times are in EDT time to prevent confusion due to time zone crossing. See the AVN11 flight status page for this flight to view local times or setup timezone preferences in your user account.

Time Position Orientation Groundspeed Altitude Reporting Facility
EDT Latitude Longitude Course Direction KTS MPH feet Rate Location/Type
06:42AM -33.9594 151.1794 350° North 84 97  Level FlightAware ADS-B (YRAY)
06:43AM -33.9483 151.1765 348° North 150 173 720 Level FlightAware ADS-B (YRAY)
06:43AM -33.9344 151.1728 348° North 152 175 500 1,800 Climbing FlightAware ADS-B (YRAY)
06:43AM -33.9208 151.1691 347° North 147 169 1,200 1,620 Climbing FlightAware ADS-B (YRAY)
06:44AM -33.9061 151.1627 340° North 177 204 1,600 1,200 Climbing FlightAware ADS-B (YRAY)
06:44AM -33.9001 151.1558 317° Northwest 181 208 1,800 1,380 Climbing FlightAware ADS-B (YRAY)
06:44AM -33.8877 151.1397 313° West 202 232 2,300 2,100 Climbing FlightAware ADS-B (YRAY)
06:45AM -33.8744 151.1227 313° West 211 243 3,200 2,220 Climbing FlightAware ADS-B (YRAY)
06:45AM -33.8601 151.1046 314° West 232 267 3,800 1,620 Climbing FlightAware ADS-B (YRAY)
06:45AM -33.8445 151.0848 314° West 257 296 4,300 2,400 Climbing FlightAware ADS-B (YRAY)
06:46AM -33.8170 151.0500 314° West 261 300 6,000 3,300 Climbing FlightAware
06:46AM -33.8142 151.0471 314° West 246 283 6,300 2,700 Climbing Aus ATC (RADAR)
06:46AM -33.8000 151.0290 314° West 261 300 6,900 2,280 Climbing FlightAware
06:46AM -33.7810 151.0090 319° Northwest 270 311 7,800 2,760 Climbing FlightAware
06:47AM -33.7700 151.0050 343° North 284 327 8,300 3,240 Climbing FlightAware
06:47AM -33.7509 151.0047 359° North 290 334 9,000 2,520 Climbing FlightAware ADS-B (YRAY)
06:47AM -33.7210 151.0280 33° Northeast 306 352 10,100 2,400 Climbing FlightAware
06:47AM -33.7142 151.0440 63° Northeast 313 360 10,500 1,800 Climbing FlightAware ADS-B (YRAY)
06:48AM -33.7122 151.0793 86° East 338 389 10,900 2,280 Climbing FlightAware ADS-B (YRAY)
06:48AM -33.7250 151.1473 103° East 354 407 12,600 2,760 Climbing FlightAware ADS-B (YRAY)
06:49AM -33.7450 151.2453 104° East 372 428 14,900 2,880 Climbing FlightAware ADS-B (YRAY)
06:50AM -33.7580 151.3090 104° East 384 442 16,500 3,180 Climbing FlightAware
06:50AM -33.7753 151.3993 104° East 388 447 18,800 2,700 Climbing Aus ATC (RADAR)
06:50AM -33.7740 151.3880 104° East 394 453 18,400 2,640 Descending FlightAware
06:51AM -33.7903 151.4748 104° East 396 456 20,400 2,640 Climbing Aus ATC (RADAR)
06:51AM -33.7890 151.4680 104° East 403 464 20,000 1,800 Descending FlightAware
06:52AM -33.8060 151.5510 104° East 418 481 21,500 2,640 Climbing FlightAware
06:52AM -33.8212 151.6331 104° East 416 479 23,100 2,280 Climbing Aus ATC (RADAR)
06:52AM -33.8220 151.6360 104° East 427 491 22,900 2,280 Descending FlightAware
06:53AM -33.8367 151.7111 104° East 426 490 24,400 2,640 Climbing Aus ATC (RADAR)
06:53AM -33.8380 151.7160 104° East 432 497 24,400 1,500 Level FlightAware
06:53AM -33.8423 151.7397 102° East 433 498 24,700 2,100 Climbing FlightAware ADS-B (YXSG)
06:53AM -33.8563 151.8121 103° East 439 505 25,800 2,100 Climbing FlightAware ADS-B (YXSG)
06:54AM -33.8703 151.8843 103° East 447 514 26,800 1,920 Climbing FlightAware ADS-B (YXSG)
06:54AM -33.8851 151.9608 103° East 454 522 27,800 1,800 Climbing FlightAware ADS-B (YXSG)
06:55AM -33.9020 152.0525 103° East 448 516 28,900 1,500 Climbing Aus ATC (RADAR)
06:55AM -33.9020 152.0550 103° East 462 532 28,800 1,500 Descending FlightAware
06:56AM -33.9073 152.1431 103° East 457 526 29,800 1,320 Climbing Aus ATC (RADAR)
06:56AM -33.9070 152.1470 103° East 472 543 29,600 1,020 Descending FlightAware
06:56AM -33.9080 152.2660 91° East 485 558 30,600 1,140 Climbing FlightAware
06:57AM -33.9080 152.3740 90° East 495 570 31,300 1,320 Climbing FlightAware
06:58AM -33.9060 152.4740 89° East 495 570 32,400 1,800 Climbing FlightAware
06:58AM -33.9050 152.5860 89° East 490 564 33,600 1,620 Climbing FlightAware
06:59AM -33.9050 152.6740 89° East 491 565 34,400 1,680 Climbing FlightAware
06:59AM -33.9053 152.6950 89° East 484 557 34,700 900 Climbing Aus ATC (RADAR)
06:59AM -33.9060 152.7620 89° East 497 572 34,900 900 Climbing FlightAware
07:00AM -33.9055 152.7815 89° East 479 551 35,200 1,380 Climbing Aus ATC (RADAR)
07:00AM -33.9017 152.8914 89° East 479 551 35,900 720 Climbing Aus ATC (RADAR)
07:00AM -33.9000 152.8830 89° East 453 521 35,700  Descending FlightAware
07:00AM -33.8880 152.9190 68° East 495 570 35,900 960 Climbing FlightAware
07:01AM -33.8650 152.9560 53° Northeast 485 558 36,200 1,020 Climbing FlightAware
07:01AM -33.7940 153.0280 40° Northeast 489 563 36,900 600 Climbing FlightAware
07:02AM -33.7320 153.0910 40° Northeast 487 560 37,000 420 Climbing FlightAware
07:02AM -33.7252 153.0974 40° Northeast 488 562 37,200  Climbing Aus ATC (RADAR)
07:03AM -33.6720 153.1520 40° Northeast 485 558 37,000  Descending FlightAware
07:03AM -33.6652 153.1585 40° Northeast 487 560 37,200  Climbing Aus ATC (RADAR)
07:03AM -33.6140 153.2100 40° Northeast 486 559 37,000  Descending FlightAware
07:04AM -33.5427 153.2818 40° Northeast 477 549 37,200  Climbing Aus ATC (RADAR)
07:04AM -33.5330 153.2920 40° Northeast 486 559 37,000 -300 Descending FlightAware
07:05AM -33.4690 153.3560 40° Northeast 486 559 37,000  Level FlightAware
07:05AM -33.3960 153.4290 40° Northeast 487 560 37,000  Level FlightAware
07:06AM -33.3260 153.4990 40° Northeast 489 563 37,000 240 Level FlightAware
07:06AM -33.3120 153.5122 40° Northeast 488 562 37,200  Climbing Aus ATC (RADAR)
07:07AM -33.2670 153.5570 39° Northeast 489 563 37,000 -240 Descending FlightAware
07:07AM -33.2040 153.6200 39° Northeast 490 564 37,000 300 Level FlightAware
07:07AM -33.1968 153.6270 39° Northeast 480 552 37,200  Climbing Aus ATC (RADAR)
07:08AM -33.1440 153.6800 39° Northeast 491 565 37,000  Descending FlightAware
07:08AM -33.1356 153.6874 39° Northeast 481 554 37,200  Climbing Aus ATC (RADAR)
07:08AM -33.0850 153.7380 39° Northeast 492 566 37,000 -180 Descending FlightAware
07:09AM -33.0240 153.7970 39° Northeast 493 567 37,000  Level FlightAware
07:09AM -32.9570 153.8630 39° Northeast 494 568 37,000 240 Level FlightAware
07:09AM -32.9448 153.8751 39° Northeast 495 570 37,200  Climbing Aus ATC (RADAR)
07:10AM -32.8940 153.9260 40° Northeast 495 570 37,000 -240 Descending FlightAware
07:11AM -32.8330 153.9840 39° Northeast 494 568 37,000  Level FlightAware
07:11AM -32.7750 154.0420 40° Northeast 488 562 37,000  Level FlightAware
07:12AM -32.7040 154.1110 39° Northeast 497 572 37,000 900 Level FlightAware
07:12AM -32.6446 154.1695 39° Northeast 496 571 38,100 1,320 Climbing Aus ATC (RADAR)
07:12AM -32.6430 154.1710 39° Northeast 496 571 37,800 360 Descending FlightAware
07:13AM -32.5720 154.2400 39° Northeast 486 559 38,400 780 Climbing FlightAware
07:14AM -32.5128 154.2976 39° Northeast 496 571 38,800 300 Climbing Aus ATC (RADAR)
07:14AM -32.5150 154.2950 39° Northeast 499 574 38,600  Descending FlightAware
07:14AM -32.4550 154.3530 39° Northeast 508 585 38,800 660 Climbing FlightAware
07:15AM -32.3925 154.4135 39° Northeast 499 574 39,300 540 Climbing Aus ATC (RADAR)
07:15AM -32.3740 154.4310 39° Northeast 502 578 39,200 480 Descending FlightAware
07:15AM -32.3120 154.4910 39° Northeast 509 586 39,700 660 Climbing FlightAware
07:16AM -32.2460 154.5550 39° Northeast 510 587 40,000 240 Climbing FlightAware
07:17AM -32.1750 154.6230 39° Northeast 511 588 40,000  Level FlightAware
07:17AM -32.1110 154.6840 39° Northeast 512 589 40,000  Level FlightAware
07:18AM -32.0430 154.7500 39° Northeast 512 589 40,000  Level FlightAware
07:18AM -31.9790 154.8110 39° Northeast 514 592 40,000  Level FlightAware
07:19AM -31.9080 154.8780 39° Northeast 514 592 40,000  Level FlightAware
07:20AM -31.8540 154.9290 39° Northeast 515 593 40,000  Level FlightAware
07:20AM -31.7800 155.0000 39° Northeast 516 594 40,000  Level FlightAware
07:21AM -31.7080 155.0690 39° Northeast 516 594 40,000  Level FlightAware
07:22AM -31.6370 155.1360 39° Northeast 518 596 40,000 240 Level FlightAware
07:22AM -31.5544 155.2136 39° Northeast 503 579 40,300  Climbing Aus ATC (RADAR)
07:22AM -31.5620 155.2070 39° Northeast 519 597 40,000  Descending FlightAware
07:23AM -31.4893 155.2753 39° Northeast 503 579 40,300  Climbing Aus ATC (RADAR)
07:23AM -31.5000 155.2650 39° Northeast 519 597 40,000 -180 Descending FlightAware
07:23AM -31.4145 155.3456 39° Northeast 503 579 40,200  Climbing Aus ATC (RADAR)
07:24AM -31.4430 155.3200 39° Northeast 519 597 40,000 120 Descending FlightAware
07:24AM -31.3504 155.4056 39° Northeast 519 597 40,300  Climbing Aus ATC (RADAR)
07:24AM -31.3540 155.4030 39° Northeast 519 597 40,000 -420 Descending FlightAware
07:25AM -31.2860 155.4650 38° Northeast 519 597 40,000  Level FlightAware
07:25AM -31.2290 155.5180 38° Northeast 519 597 40,000  Level FlightAware
07:26AM -31.1710 155.5700 37° Northeast 519 597 40,000 240 Level FlightAware
07:27AM -31.0574 155.6785 37° Northeast 504 580 40,300  Climbing Aus ATC (RADAR)
07:27AM -31.1130 155.6230 37° Northeast 519 597 40,000 -540 Descending FlightAware
07:27AM -31.0530 155.6780 38° Northeast 519 597 40,000  Level FlightAware
07:28AM -30.9950 155.7300 38° Northeast 519 597 40,000  Level FlightAware
07:28AM -30.9370 155.7830 38° Northeast 519 597 40,000  Level FlightAware
07:29AM -30.8800 155.8360 39° Northeast 519 597 40,000  Level FlightAware
07:30AM -30.8220 155.8880 38° Northeast 519 597 40,000  Level FlightAware
07:30AM -30.7640 155.9410 38° Northeast 519 597 40,000  Level FlightAware
07:31AM -30.7060 155.9940 38° Northeast 519 597 40,000  Level FlightAware
07:31AM -30.6480 156.0460 38° Northeast 519 597 40,000  Level FlightAware
07:32AM -30.5900 156.0990 38° Northeast 519 597 40,000  Level FlightAware
07:33AM -30.5320 156.1510 38° Northeast 519 597 40,000  Level FlightAware
07:33AM -30.4740 156.2040 38° Northeast 519 597 40,000  Level FlightAware
07:34AM -30.4160 156.2560 38° Northeast 519 597 40,000 180 Level FlightAware
07:35AM -30.2292 156.6799 38° Northeast 527 606 40,300 180 Climbing Aus ATC (RADAR)
07:35AM -30.1807 156.7434 49° Northeast 526 605 40,300  Level Aus ATC (RADAR)
07:36AM -30.1317 156.8067 48° Northeast 527 606 40,300  Level Aus ATC (RADAR)
07:36AM -30.0747 156.8808 48° Northeast 527 606 40,300  Level Aus ATC (RADAR)
07:37AM -30.0009 156.9762 48° Northeast 529 609 40,300  Level Aus ATC (RADAR)
07:38AM -29.9434 157.0505 48° Northeast 530 610 40,300  Level Aus ATC (RADAR)
07:38AM -29.8858 157.1250 48° Northeast 532 612 40,300  Level Aus ATC (RADAR)
07:39AM -29.8205 157.2097 48° Northeast 529 609 40,300  Level Aus ATC (RADAR)
07:40AM -29.7620 157.2846 48° Northeast 534 615 40,300  Level Aus ATC (RADAR)
07:40AM -29.7042 157.3589 48° Northeast 533 613 40,300  Level Aus ATC (RADAR)
07:41AM -29.6546 157.4221 48° Northeast 531 611 40,300  Level Aus ATC (RADAR)
07:41AM -29.6044 157.4857 48° Northeast 533 613 40,300  Level Aus ATC (RADAR)
07:42AM -29.5300 157.5809 48° Northeast 532 612 40,300 -420 Level Aus ATC (RADAR)
07:42AM -29.5290 157.5810 48° Northeast 531 611 40,000 -480 Descending FlightAware
07:43AM -29.4700 157.6560 48° Northeast 536 617 40,000  Level FlightAware
07:43AM -29.4290 157.7090 48° Northeast 536 617 40,000  Level FlightAware
07:44AM -29.3440 157.8160 48° Northeast 534 615 40,000  Level FlightAware
07:44AM -29.2920 157.8820 48° Northeast 534 615 40,000  Level FlightAware
07:45AM -29.2450 157.9420 48° Northeast 534 615 40,000  Level FlightAware
07:46AM -29.1930 158.0090 48° Northeast 534 615 40,000  Level FlightAware
07:46AM -29.1420 158.0730 48° Northeast 534 615 40,000  Level FlightAware
07:47AM -29.0910 158.1370 48° Northeast 534 615 40,000  Level FlightAware
07:47AM -29.0410 158.2020 49° Northeast 534 615 40,000  Level FlightAware
07:48AM -28.9900 158.2660 48° Northeast 534 615 40,000  Level FlightAware
07:49AM -28.9400 158.3300 48° Northeast 534 615 40,000  Level FlightAware
07:49AM -28.8880 158.3960 48° Northeast 534 615 40,000  Level FlightAware
07:50AM -28.8400 158.4570 48° Northeast 534 615 40,000  Level FlightAware
07:50AM -28.7890 158.5210 48° Northeast 534 615 40,000  Level FlightAware
07:51AM -28.7390 158.5850 48° Northeast 534 615 40,000  Level FlightAware
07:52AM -28.6880 158.6490 48° Northeast 534 615 40,000  Level FlightAware
07:52AM -28.4968 158.8719 225° Southwest 39,000  Descending Aus ATC (Calculated)
07:52AM -28.6350 158.7160 48° Northeast 534 615 40,000 1,080 Climbing FlightAware
07:53AM -28.5840 158.7800 48° Northeast 534 615 40,000  Level FlightAware
07:53AM -28.5330 158.8440 48° Northeast 534 615 40,000  Level FlightAware
07:54AM -28.2542 159.1718 47° Northeast 39,000 -660 Descending Aus ATC (Calculated)
07:55AM -28.2039 159.2333 227° Southwest 39,000  Level Aus ATC (Calculated)
07:57AM -28.3320 159.0765 227° Southwest  Level FlightAware Approximate
07:57AM -28.0054 159.4751 47° Northeast 39,000  Level Aus ATC (Calculated)
07:57AM -27.9589 159.5316 47° Northeast 39,000  Level Aus ATC (Calculated)
07:58AM -27.8671 159.6427 227° Southwest 39,000  Level Aus ATC (Calculated)
07:59AM -28.0506 159.4201 227° Southwest  Level FlightAware Approximate
08:00AM -27.7639 159.7404 47° Northeast  Level Estimated
08:00AM -27.7336 159.8039 33° Northeast 39,000  Level Aus ATC (Calculated)
08:01AM -27.6793 159.8432 47° Northeast  Level FlightAware Approximate
08:02AM -27.5919 159.9743 47° Northeast  Level FlightAware Approximate
08:03AM -27.5067 160.0764 47° Northeast  Level FlightAware Approximate
08:04AM -27.4215 160.1782 47° Northeast  Level FlightAware Approximate
08:05AM -27.3363 160.2800 47° Northeast  Level FlightAware Approximate
08:05AM -27.2655 160.3641 47° Northeast 39,000  Level Aus ATC (Calculated)
08:06AM -27.0888 160.5738 227° Southwest 39,000  Level Aus ATC (Calculated)
08:07AM -27.1146 160.5432 47° Northeast  Level FlightAware Approximate
08:08AM -26.9946 160.6850 46° Northeast  Level FlightAware Approximate
08:08AM -26.9582 160.7280 46° Northeast 39,000  Level Aus ATC (Calculated)
08:08AM -26.8969 160.8002 46° Northeast 39,000  Level Aus ATC (Calculated)
08:10AM -26.8026 160.9110 46° Northeast  Level FlightAware Approximate
08:11AM -26.7168 161.0116 46° Northeast  Level FlightAware Approximate
08:11AM -26.7187 161.0094 46° Northeast 39,000  Level Aus ATC (Calculated)
08:12AM -26.6328 161.1099 46° Northeast  Level FlightAware Approximate
08:13AM -26.5468 161.2102 46° Northeast  Level FlightAware Approximate
08:13AM -26.5028 161.2615 46° Northeast 39,000  Level Aus ATC (Calculated)
08:14AM -26.4168 161.3615 46° Northeast  Level FlightAware Approximate
08:15AM -26.3307 161.4615 46° Northeast  Level FlightAware Approximate
08:16AM -26.2445 161.5612 46° Northeast  Level FlightAware Approximate
08:17AM -26.1582 161.6609 46° Northeast  Level FlightAware Approximate
08:18AM -26.0719 161.7604 46° Northeast  Level FlightAware Approximate
08:19AM -25.9855 161.8597 46° Northeast  Level FlightAware Approximate
08:20AM -25.8990 161.9589 46° Northeast  Level FlightAware Approximate
08:21AM -25.8125 162.0579 46° Northeast  Level FlightAware Approximate
08:22AM -25.7259 162.1568 46° Northeast  Level FlightAware Approximate
08:23AM -25.6393 162.2556 46° Northeast  Level FlightAware Approximate
08:23AM -25.5057 162.4073 226° Southwest 39,000  Level Aus ATC (Calculated)
08:24AM -25.5525 162.3542 46° Northeast  Level FlightAware Approximate
08:25AM -25.3320 162.6040 46° Northeast  Level FlightAware Approximate
08:26AM -25.2451 162.7021 46° Northeast  Level FlightAware Approximate
08:27AM -25.1580 162.8001 46° Northeast  Level FlightAware Approximate
08:28AM -25.0709 162.8979 46° Northeast  Level FlightAware Approximate
08:29AM -24.9838 162.9956 45° Northeast  Level FlightAware Approximate
08:30AM -24.8966 163.0931 45° Northeast  Level FlightAware Approximate
08:31AM -24.9838 162.9956 225° Southwest  Level FlightAware Approximate
08:32AM -24.8966 163.0931 45° Northeast  Level FlightAware Approximate
08:33AM -24.9838 162.9956 225° Southwest  Level FlightAware Approximate
08:34AM -24.8966 163.0931 45° Northeast  Level FlightAware Approximate
08:35AM -24.9838 162.9956 225° Southwest  Level FlightAware Approximate
08:36AM -24.8966 163.0931 45° Northeast  Level FlightAware Approximate
08:37AM -24.9838 162.9956 225° Southwest  Level FlightAware Approximate
08:38AM -24.8956 163.0940 45° Northeast  Level FlightAware Approximate
08:39AM -24.8083 163.1914 45° Northeast  Level FlightAware Approximate
08:40AM -24.7209 163.2886 45° Northeast  Level FlightAware Approximate
08:41AM -24.6334 163.3856 45° Northeast  Level FlightAware Approximate
08:42AM -24.5458 163.4825 45° Northeast  Level FlightAware Approximate
08:43AM -24.4582 163.5793 45° Northeast  Level FlightAware Approximate
08:44AM -24.3706 163.6760 45° Northeast  Level FlightAware Approximate
08:45AM -24.2828 163.7725 45° Northeast  Level FlightAware Approximate
08:46AM -24.1950 163.8689 45° Northeast  Level FlightAware Approximate
08:47AM -24.1072 163.9652 45° Northeast  Level FlightAware Approximate
08:48AM -24.0193 164.0613 45° Northeast  Level FlightAware Approximate
08:49AM -23.9313 164.1573 45° Northeast  Level FlightAware Approximate
08:50AM -23.8433 164.2531 45° Northeast  Level FlightAware Approximate
08:51AM -23.7552 164.3489 45° Northeast  Level FlightAware Approximate
08:52AM -23.6671 164.4445 45° Northeast  Level FlightAware Approximate
08:53AM -23.5789 164.5399 45° Northeast  Level FlightAware Approximate
08:54AM -23.4906 164.6353 45° Northeast  Level FlightAware Approximate
08:55AM -23.4023 164.7305 45° Northeast  Level FlightAware Approximate
08:56AM -23.3139 164.8256 45° Northeast  Level FlightAware Approximate
08:57AM -23.2254 164.9205 45° Northeast  Level FlightAware Approximate
08:58AM -23.1369 165.0153 45° Northeast  Level FlightAware Approximate
08:59AM -23.0483 165.1100 45° Northeast  Level FlightAware Approximate
09:00AM -22.9597 165.2046 45° Northeast  Level FlightAware Approximate
09:01AM -22.8710 165.2990 44° Northeast  Level FlightAware Approximate
09:02AM -22.7823 165.3933 44° Northeast  Level FlightAware Approximate
09:03AM -22.6935 165.4875 44° Northeast  Level FlightAware Approximate
09:04AM -22.6047 165.5816 44° Northeast  Level FlightAware Approximate
09:05AM -22.5158 165.6756 44° Northeast  Level FlightAware Approximate
09:06AM -22.4268 165.7694 44° Northeast  Level FlightAware Approximate
09:07AM -22.3378 165.8631 44° Northeast  Level FlightAware Approximate
09:08AM -22.2487 165.9567 44° Northeast  Level FlightAware Approximate
09:09AM -22.1596 166.0502 44° Northeast  Level FlightAware Approximate
09:10AM -22.0704 166.1435 44° Northeast  Level FlightAware Approximate
09:11AM -21.9747 166.2264 24° Northeast  Level FlightAware Approximate
09:12AM -21.8612 166.2808 24° Northeast  Level FlightAware Approximate
09:13AM -21.7477 166.3352 24° Northeast  Level FlightAware Approximate
09:14AM -21.6342 166.3895 24° Northeast  Level FlightAware Approximate
09:15AM -21.5207 166.4437 24° Northeast  Level FlightAware Approximate
09:16AM -21.4071 166.4978 24° Northeast  Level FlightAware Approximate
09:17AM -21.2935 166.5518 24° Northeast  Level FlightAware Approximate
09:18AM -21.1799 166.6058 24° Northeast  Level FlightAware Approximate
09:19AM -21.0663 166.6596 24° Northeast  Level FlightAware Approximate
09:20AM -20.9527 166.7134 24° Northeast  Level FlightAware Approximate
09:21AM -20.8391 166.7671 24° Northeast  Level FlightAware Approximate
09:22AM -20.7254 166.8207 24° Northeast  Level FlightAware Approximate
09:23AM -20.6117 166.8743 24° Northeast  Level FlightAware Approximate
09:24AM -20.4980 166.9277 24° Northeast  Level FlightAware Approximate
09:25AM -20.3843 166.9811 24° Northeast  Level FlightAware Approximate
09:26AM -20.2706 167.0344 24° Northeast  Level FlightAware Approximate
09:27AM -20.1569 167.0876 24° Northeast  Level FlightAware Approximate
09:28AM -20.0431 167.1408 24° Northeast  Level FlightAware Approximate
09:29AM -19.9293 167.1938 24° Northeast  Level FlightAware Approximate
09:30AM -19.8155 167.2468 24° Northeast  Level FlightAware Approximate
09:31AM -19.7017 167.2997 24° Northeast  Level FlightAware Approximate
09:32AM -19.5879 167.3526 24° Northeast  Level FlightAware Approximate
09:33AM -19.4741 167.4054 24° Northeast  Level FlightAware Approximate
09:34AM -19.3604 167.4585 24° Northeast  Level FlightAware Approximate
09:35AM -19.2467 167.5115 24° Northeast  Level FlightAware Approximate
09:36AM -19.1330 167.5644 24° Northeast  Level FlightAware Approximate
09:37AM -19.0192 167.6172 24° Northeast  Level FlightAware Approximate
09:38AM -18.9055 167.6700 24° Northeast  Level FlightAware Approximate
09:39AM -18.7917 167.7227 24° Northeast  Level FlightAware Approximate
09:40AM -18.6779 167.7753 24° Northeast  Level FlightAware Approximate
09:41AM -18.5641 167.8279 24° Northeast  Level FlightAware Approximate
09:42AM -18.4504 167.8805 24° Northeast  Level FlightAware Approximate
09:43AM -18.3366 167.9332 24° Northeast  Level FlightAware Approximate
09:44AM -18.2229 167.9858 24° Northeast  Level FlightAware Approximate
09:45AM -18.1091 168.0383 24° Northeast  Level FlightAware Approximate
09:46AM -17.9954 168.0907 24° Northeast  Level FlightAware Approximate
09:47AM -17.8816 168.1431 24° Northeast  Level FlightAware Approximate
09:48AM -17.7678 168.1954 24° Northeast  Level FlightAware Approximate
09:49AM -17.6621 168.2439 24° Northeast  Level FlightAware Approximate
09:50AM -17.6993 168.3198 24° Northeast  Level Estimated
09:51AM -17.6993 168.3198 24° Northeast  Level Estimated
09:52AM -17.6993 168.3198 24° Northeast  Level Estimated
09:53AM -17.6993 168.3198 24° Northeast  Level Estimated
09:54AM -17.6993 168.3198 24° Northeast  Level Estimated
09:55AM -17.6993 168.3198 24° Northeast  Level Estimated
09:56AM -17.6993 168.3198 24° Northeast  Level Estimated
09:57AM -17.6993 168.3198 24° Northeast  Level Estimated
09:58AM -17.6993 168.3198 24° Northeast  Level Estimated